Flight Track Log - Related Links

Times and Time Zones

All times are in EDT time to prevent confusion due to time zone crossing. See the SKW4801 flight status page for this flight to view local times or setup timezone preferences in your user account.

Time Position Orientation Groundspeed Altitude Reporting Facility
EDT Latitude Longitude Course Direction KTS MPH feet Rate Location/Type
Mon 07:33:20 AM 35.4122 -97.6300 300° West 165 190 1,800  Level Fort Worth Center
Mon 07:38:35 AM 35.6075 -98.0469 297° West 297 342 13,200 2,192 Climbing Kansas City Center
Mon 07:39:35 AM 35.6464 -98.1406 296° West 310 357 15,500 2,200 Climbing Kansas City Center
Mon 07:40:35 AM 35.6869 -98.2447 298° West 327 376 17,600 2,000 Climbing Kansas City Center
Mon 07:41:35 AM 35.7317 -98.3492 296° West 333 383 19,500 1,850 Climbing Kansas City Center
Mon 07:42:35 AM 35.7739 -98.4564 295° West 339 390 21,300 1,600 Climbing Kansas City Center
Mon 07:43:35 AM 35.8161 -98.5658 297° West 349 402 22,700 1,500 Climbing Kansas City Center
Mon 07:44:35 AM 35.8644 -98.6839 296° West 359 413 24,300 1,500 Climbing Kansas City Center
Mon 07:45:35 AM 35.9103 -98.8017 297° West 371 427 25,700 1,300 Climbing Kansas City Center
Mon 07:46:35 AM 35.9600 -98.9250 297° West 387 445 26,900 1,200 Climbing Kansas City Center
Mon 07:47:35 AM 36.0078 -99.0431 296° West 387 445 28,100 1,400 Climbing Kansas City Center
Mon 07:48:35 AM 36.0647 -99.1878 295° West 398 458 29,700 1,200 Climbing Kansas City Center
Mon 07:49:35 AM 36.1081 -99.3008 295° West 409 471 30,500 1,050 Climbing Kansas City Center
Mon 07:50:35 AM 36.1553 -99.4247 296° West 409 471 31,800 750 Climbing Kansas City Center
Mon 07:51:35 AM 36.2061 -99.5542 295° West 409 471 32,000 500 Climbing Kansas City Center
Mon 07:52:35 AM 36.2550 -99.6833 296° West 409 471 32,800 1,000 Climbing Kansas City Center
Mon 07:53:35 AM 36.3056 -99.8106 295° West 414 476 34,000 1,200 Climbing Kansas City Center
Mon 07:54:35 AM 36.3503 -99.9322 295° West 414 476 35,200 1,050 Climbing Kansas City Center
Mon 07:55:35 AM 36.3947 -100.0514 296° West 402 463 36,100 750 Climbing Kansas City Center
Mon 07:56:35 AM 36.4414 -100.1711 295° West 391 450 36,700 500 Climbing Kansas City Center
Mon 07:57:35 AM 36.4875 -100.2958 297° West 391 450 37,100 400 Climbing Kansas City Center
Mon 07:58:35 AM 36.5397 -100.4239 294° West 381 438 37,500 350 Climbing Kansas City Center
Mon 07:59:35 AM 36.5800 -100.5356 294° West 379 436 37,800 250 Climbing Kansas City Center
Mon 08:00:35 AM 36.6256 -100.6633 296° West 392 451 38,000 100 Climbing Kansas City Center
Mon 08:01:35 AM 36.6789 -100.8022 295° West 398 458 38,000  Level Kansas City Center
Mon 08:02:35 AM 36.7281 -100.9358 295° West 414 476 38,000  Level Kansas City Center
Mon 08:03:35 AM 36.7717 -101.0536 295° West 422 486 38,000  Level Kansas City Center
Mon 08:04:35 AM 36.8225 -101.1903 294° West 429 494 38,000  Level Kansas City Center
Mon 08:05:35 AM 36.8783 -101.3458 295° West 434 499 38,000 50 Level Kansas City Center
Mon 08:06:35 AM 36.9306 -101.4883 294° West 439 505 38,100  Climbing Kansas City Center
Mon 08:07:35 AM 36.9786 -101.6253 295° West 439 505 38,000 -34 Descending Kansas City Center
Mon 08:09:33 AM 37.0722 -101.8819 293° West 454 522 38,000  Level Albuquerque Center
Mon 08:10:33 AM 37.1253 -102.0397 295° West 449 517 38,000  Level Albuquerque Center
Mon 08:11:33 AM 37.1750 -102.1744 293° West 444 511 38,000  Level Albuquerque Center
Mon 08:12:33 AM 37.2225 -102.3144 295° West 444 511 38,000  Level Albuquerque Center
Mon 08:14:34 AM 37.3192 -102.5786 294° West 439 505 38,000  Level Denver Center
Mon 08:15:35 AM 37.3747 -102.7347 293° West 439 505 38,000  Level Denver Center
Mon 08:16:35 AM 37.4208 -102.8706 294° West 440 506 38,000  Level Denver Center
Mon 08:17:36 AM 37.4678 -103.0061 294° West 441 507 38,000  Level Denver Center
Mon 08:18:37 AM 37.5228 -103.1642 293° West 441 507 38,000  Level Denver Center
Mon 08:19:38 AM 37.5692 -103.3000 294° West 442 509 38,000  Level Denver Center
Mon 08:20:38 AM 37.6239 -103.4589 293° West 442 509 38,000  Level Denver Center
Mon 08:21:39 AM 37.6697 -103.5964 293° West 445 512 38,000  Level Denver Center
Mon 08:22:40 AM 37.7164 -103.7331 293° West 446 513 38,000  Level Denver Center
Mon 08:23:41 AM 37.7706 -103.8942 293° West 450 518 38,000  Level Denver Center
Mon 08:24:42 AM 37.8158 -104.0308 293° West 448 516 38,000  Level Denver Center
Mon 08:25:43 AM 37.8617 -104.1694 293° West 450 518 38,000  Level Denver Center
Mon 08:26:43 AM 37.9150 -104.3325 293° West 451 519 38,000  Level Denver Center
Mon 08:27:44 AM 37.9617 -104.4728 293° West 452 520 38,000  Level Denver Center
Mon 08:28:45 AM 38.0153 -104.6361 293° West 451 519 38,000  Level Denver Center
Mon 08:29:46 AM 38.0622 -104.7786 292° West 456 525 38,000  Level Denver Center
Mon 08:30:47 AM 38.1083 -104.9217 292° West 457 526 38,000  Level Denver Center
Mon 08:31:48 AM 38.1625 -105.0889 292° West 458 527 38,000  Level Denver Center
Mon 08:32:49 AM 38.2089 -105.2325 292° West 459 528 38,000  Level Denver Center
Mon 08:33:50 AM 38.2556 -105.3767 292° West 460 529 38,000  Level Denver Center
Mon 08:34:51 AM 38.3086 -105.5453 292° West 460 529 38,000  Level Denver Center
Mon 08:35:52 AM 38.3586 -105.7039 292° West 462 532 38,000  Level Denver Center
Mon 08:36:53 AM 38.4003 -105.8364 292° West 463 533 38,000  Level Denver Center
Mon 08:37:54 AM 38.4542 -106.0072 291° West 464 534 38,000  Level Denver Center
Mon 08:38:55 AM 38.4994 -106.1544 291° West 465 535 38,000  Level Denver Center
Mon 08:39:56 AM 38.5492 -106.3169 292° West 463 533 38,000  Level Denver Center
Mon 08:40:57 AM 38.5944 -106.4631 291° West 461 531 38,000  Level Denver Center
Mon 08:41:58 AM 38.6458 -106.6322 291° West 459 528 38,000  Level Denver Center
Mon 08:42:59 AM 38.6894 -106.7786 291° West 459 528 38,000  Level Denver Center
Mon 08:44:00 AM 38.7336 -106.9233 291° West 457 526 38,000  Level Denver Center
Mon 08:45:01 AM 38.7844 -107.0931 291° West 457 526 38,000  Level Denver Center
Mon 08:46:02 AM 38.8278 -107.2383 291° West 457 526 38,000  Level Denver Center
Mon 08:47:04 AM 38.8706 -107.3839 291° West 456 525 38,000  Level Denver Center
Mon 08:48:05 AM 38.9200 -107.5531 291° West 454 522 38,000  Level Denver Center
Mon 08:49:06 AM 38.9617 -107.6944 291° West 445 512 38,000  Level Denver Center
Mon 08:50:07 AM 39.0094 -107.8569 291° West 437 503 38,000  Level Denver Center
Mon 08:51:08 AM 39.0497 -107.9942 291° West 431 496 38,000  Level Denver Center
Mon 08:52:09 AM 39.0897 -108.1317 291° West 428 493 38,000  Level Denver Center
Mon 08:53:10 AM 39.1361 -108.2894 290° West 423 487 38,000  Level Denver Center
Mon 08:54:12 AM 39.1733 -108.4253 290° West 418 481 38,000  Level Denver Center
Mon 08:55:13 AM 39.2119 -108.5608 290° West 419 482 38,000  Level Denver Center
Mon 08:56:14 AM 39.2561 -108.7189 290° West 417 480 38,000  Level Denver Center
Mon 08:57:15 AM 39.2942 -108.8547 290° West 419 482 38,000 -393 Level Denver Center
Mon 08:58:16 AM 39.3317 -108.9903 290° West 416 479 37,200 -984 Descending Denver Center
Mon 08:59:17 AM 39.3744 -109.1433 290° West 405 466 36,000 -1,024 Descending Denver Center
Mon 09:00:19 AM 39.4097 -109.2708 290° West 394 453 35,100 -927 Descending Denver Center
Mon 09:01:20 AM 39.4447 -109.3950 289° West 386 444 34,100 -1,055 Descending Denver Center
Mon 09:01:50 AM 39.4681 -109.4817 289° West 390 449 33,500 -1,055 Descending Salt Lake Center
Mon 09:02:51 AM 39.5031 -109.6108 290° West 394 453 32,500 -738 Descending Salt Lake Center
Mon 09:03:52 AM 39.5397 -109.7419 289° West 401 461 32,000 -246 Descending Salt Lake Center
Mon 09:04:53 AM 39.5803 -109.8953 289° West 402 463 32,000  Level Salt Lake Center
Mon 09:05:54 AM 39.6158 -110.0264 289° West 403 464 32,000  Level Salt Lake Center
Mon 09:06:55 AM 39.6517 -110.1614 289° West 409 471 32,000  Level Salt Lake Center
Mon 09:07:56 AM 39.6942 -110.3222 289° West 418 481 32,000  Level Salt Lake Center
Mon 09:08:57 AM 39.7311 -110.4606 290° West 422 486 32,000  Level Salt Lake Center
Mon 09:09:58 AM 39.7714 -110.6017 298° West 430 495 32,000  Level Salt Lake Center
Mon 09:10:59 AM 39.8333 -110.7558 297° West 430 495 32,000 -934 Level Salt Lake Center
Mon 09:12:00 AM 39.8844 -110.8894 297° West 431 496 30,100 -2,016 Descending Salt Lake Center
Mon 09:13:01 AM 39.9347 -111.0203 297° West 426 490 27,900 -2,311 Descending Salt Lake Center
Mon 09:14:02 AM 39.9919 -111.1697 296° West 417 480 25,400 -2,361 Descending Salt Lake Center
Mon 09:15:03 AM 40.0392 -111.2950 296° West 409 471 23,100 -2,244 Descending Salt Lake Center
Mon 09:16:05 AM 40.0861 -111.4225 292° West 388 447 20,800 -2,220 Descending Salt Lake Center
Mon 09:16:43 AM 40.1153 -111.5161 298° West 381 438 19,400 -885 Descending Salt Lake Center
Mon 09:18:07 AM 40.1764 -111.6669 321° Northwest 366 421 19,000 -579 Descending Salt Lake Center
Mon 09:19:08 AM 40.2567 -111.7514 327° Northwest 372 428 18,000 -1,333 Descending Salt Lake Center
Mon 09:20:22 AM 40.3711 -111.8492 324° Northwest 363 418 16,000 -1,525 Descending Salt Lake Center
Mon 09:21:10 AM 40.4331 -111.9083 328° Northwest 354 407 14,900 -1,340 Descending Salt Lake Center
Mon 09:22:05 AM 40.5053 -111.9686 327° Northwest 335 386 13,700 -1,359 Descending Salt Lake Center
Mon 09:23:18 AM 40.6011 -112.0519 343° North 335 386 12,000 -1,209 Descending Salt Lake Center
Mon 09:24:19 AM 40.6900 -112.0869 356° North 339 390 11,000 -465 Descending Salt Lake Center
Mon 09:25:27 AM 40.7867 -112.0956 355° North 292 336 11,000 -469 Level Salt Lake Center
Mon 09:26:27 AM 40.8522 -112.1028 360° North 244 281 10,000 -1,500 Descending Salt Lake Center
Mon 09:27:27 AM 40.9189 -112.1028 79° East 241 277 8,000 -1,785 Descending Salt Lake Center
Mon 09:28:28 AM 40.9297 -112.0253 166° South 215 247 6,400 -1,180 Descending Salt Lake Center
Mon 09:29:29 AM 40.8836 -112.0097 174° South 173 199 5,600 -738 Descending Salt Lake Center
Mon 09:30:30 AM 40.8417 -112.0042 174° South 151 174 4,900 -619 Descending Salt Lake Center
Mon 09:31:35 AM 40.8053 -111.9992 174° South 131 151 4,300 -554 Descending Salt Lake Center

Login

Don't have an account? Register now (free) for customized features, flight alerts, and more!